createdAt,value
2023-02-25T00:01:57.810Z,20.17
2023-02-25T00:04:32.993Z,18.73
2023-02-25T00:07:01.124Z,18.27
2023-02-25T00:09:30.868Z,19.17
2023-02-25T00:11:58.940Z,22.33
2023-02-25T00:14:27.492Z,20.45
2023-02-25T00:16:55.985Z,25.87
2023-02-25T00:19:24.740Z,21.55
2023-02-25T00:21:54.194Z,26.43
2023-02-25T00:24:22.349Z,24.35
2023-02-25T00:26:50.473Z,24.13
2023-02-25T00:29:18.578Z,23.35
2023-02-25T00:31:46.830Z,28.40
2023-02-25T00:34:15.292Z,32.15
2023-02-25T00:36:43.442Z,27.27
2023-02-25T00:39:13.031Z,30.95
2023-02-25T00:44:09.526Z,31.90
2023-02-25T00:46:37.652Z,27.50
2023-02-25T00:49:05.786Z,30.58
2023-02-25T00:51:34.629Z,30.35
2023-02-25T00:54:02.687Z,24.30
2023-02-25T00:56:32.105Z,26.92
2023-02-25T00:59:01.199Z,27.45
2023-02-25T01:01:31.615Z,23.85
2023-02-25T01:04:00.029Z,33.05
2023-02-25T01:06:30.088Z,23.55
2023-02-25T01:08:58.692Z,22.88
2023-02-25T01:11:29.350Z,27.45
2023-02-25T01:14:01.241Z,28.17
2023-02-25T01:16:32.083Z,28.75
2023-02-25T01:19:04.145Z,23.52
2023-02-25T01:21:34.276Z,26.75
2023-02-25T01:24:05.139Z,24.00
2023-02-25T01:26:37.425Z,23.45
2023-02-25T01:29:09.932Z,25.48
2023-02-25T01:31:38.212Z,22.85
2023-02-25T01:34:08.771Z,23.10
2023-02-25T01:36:37.277Z,20.35
2023-02-25T01:39:06.382Z,22.88
2023-02-25T01:41:36.939Z,23.15
2023-02-25T01:44:09.363Z,19.20
2023-02-25T01:46:38.033Z,19.08
2023-02-25T01:49:10.511Z,19.50
2023-02-25T01:51:38.957Z,20.73
2023-02-25T01:54:09.168Z,13.63
2023-02-25T01:56:39.349Z,17.83
2023-02-25T01:59:09.192Z,15.02
2023-02-25T02:01:40.246Z,15.95
2023-02-25T02:04:11.700Z,15.20
2023-02-25T02:06:42.253Z,14.90
2023-02-25T02:09:14.118Z,14.07
2023-02-25T02:11:43.425Z,13.77
2023-02-25T02:14:15.756Z,10.77
2023-02-25T02:17:10.036Z,10.13
2023-02-25T02:19:55.133Z,11.70
2023-02-25T02:22:31.246Z,9.18
2023-02-25T02:25:35.050Z,9.13
2023-02-25T02:28:44.755Z,6.47
2023-02-25T02:31:45.398Z,7.95
2023-02-25T02:34:28.539Z,7.05
2023-02-25T02:37:06.349Z,9.55
2023-02-25T02:39:45.588Z,5.15
2023-02-25T02:42:18.596Z,6.55
2023-02-25T02:44:53.486Z,7.97
2023-02-25T02:47:26.548Z,8.32
2023-02-25T02:50:01.860Z,8.50
2023-02-25T02:52:32.997Z,10.07
2023-02-25T02:55:07.237Z,9.57
2023-02-25T02:57:39.139Z,8.57
2023-02-25T03:00:17.736Z,7.93
2023-02-25T03:02:50.188Z,8.97
2023-02-25T03:05:21.110Z,8.10
2023-02-25T03:07:55.240Z,9.32
2023-02-25T03:10:23.917Z,9.38
2023-02-25T03:12:52.173Z,7.45
2023-02-25T03:15:20.382Z,9.85
2023-02-25T03:17:52.808Z,7.03
2023-02-25T03:20:27.768Z,11.55
2023-02-25T03:22:57.892Z,7.70
2023-02-25T03:25:29.345Z,9.52
2023-02-25T03:28:00.693Z,7.95
2023-02-25T03:30:33.018Z,8.43
2023-02-25T03:33:06.334Z,10.45
2023-02-25T03:35:37.427Z,6.80
2023-02-25T03:38:09.340Z,8.38
2023-02-25T03:40:39.376Z,6.40
2023-02-25T03:43:12.282Z,6.47
2023-02-25T03:45:42.431Z,5.50
2023-02-25T03:48:13.253Z,5.05
2023-02-25T03:50:48.067Z,4.20
2023-02-25T03:53:16.304Z,4.53
2023-02-25T03:55:44.619Z,2.92
2023-02-25T03:58:12.927Z,5.13
2023-02-25T04:00:44.468Z,3.38
2023-02-25T04:03:12.740Z,2.35
2023-02-25T04:05:42.237Z,2.35
2023-02-25T04:08:15.849Z,1.98
2023-02-25T04:10:44.159Z,3.58
2023-02-25T04:13:13.162Z,2.08
2023-02-25T04:15:41.614Z,2.10
2023-02-25T04:18:10.043Z,2.47
2023-02-25T04:20:38.824Z,2.28
2023-02-25T04:23:08.754Z,2.70
2023-02-25T04:25:37.435Z,2.05
2023-02-25T04:28:05.685Z,2.45
2023-02-25T04:30:34.496Z,6.10
2023-02-25T04:33:02.819Z,2.78
2023-02-25T04:35:30.917Z,2.67
2023-02-25T04:37:58.975Z,4.13
2023-02-25T04:40:29.043Z,1.90
2023-02-25T04:42:57.135Z,2.33
2023-02-25T04:45:26.933Z,1.58
2023-02-25T04:47:57.745Z,2.17
2023-02-25T04:50:26.430Z,1.50
2023-02-25T04:52:54.487Z,0.98
2023-02-25T04:55:22.616Z,1.50
2023-02-25T04:57:52.054Z,2.70
2023-02-25T05:00:24.193Z,2.00
2023-02-25T05:02:52.644Z,3.90
2023-02-25T05:05:20.795Z,1.77
2023-02-25T05:07:48.978Z,2.83
2023-02-25T05:10:17.723Z,1.52
2023-02-25T05:12:45.772Z,2.58
2023-02-25T05:15:16.186Z,1.88
2023-02-25T05:17:44.273Z,2.15
2023-02-25T05:20:13.441Z,1.40
2023-02-25T05:22:42.273Z,1.65
2023-02-25T05:25:11.439Z,3.35
2023-02-25T05:27:39.489Z,1.23
2023-02-25T05:30:08.910Z,1.38
2023-02-25T05:32:38.764Z,2.20
2023-02-25T05:35:09.761Z,2.78
2023-02-25T05:37:39.457Z,1.98
2023-02-25T05:40:09.491Z,1.77
2023-02-25T05:42:38.419Z,3.05
2023-02-25T05:45:07.548Z,3.22
2023-02-25T05:47:35.806Z,2.20
2023-02-25T05:50:06.002Z,1.45
2023-02-25T05:52:34.129Z,2.55
2023-02-25T05:55:02.315Z,2.15
2023-02-25T05:57:30.709Z,3.65
2023-02-25T05:59:58.767Z,3.50
2023-02-25T06:02:27.006Z,5.10
2023-02-25T06:04:55.308Z,3.03
2023-02-25T06:07:24.786Z,2.00
2023-02-25T06:09:52.886Z,2.08
2023-02-25T06:12:20.942Z,3.05
2023-02-25T06:14:49.009Z,1.55
2023-02-25T06:17:17.082Z,3.10
2023-02-25T06:19:45.609Z,2.63
2023-02-25T06:22:13.820Z,1.42
2023-02-25T06:24:43.320Z,2.55
2023-02-25T06:29:41.563Z,5.13
2023-02-25T06:32:10.116Z,7.07
2023-02-25T06:34:38.775Z,3.03
2023-02-25T06:37:07.786Z,2.83
2023-02-25T06:39:35.915Z,6.20
2023-02-25T06:42:05.621Z,3.25
2023-02-25T06:44:33.689Z,6.38
2023-02-25T06:47:01.754Z,3.85
2023-02-25T06:49:31.011Z,3.70
2023-02-25T06:51:59.089Z,4.70
2023-02-25T06:54:27.919Z,2.75
2023-02-25T06:56:56.330Z,5.30
2023-02-25T06:59:25.819Z,2.15
2023-02-25T07:01:53.888Z,6.45
2023-02-25T07:04:22.104Z,5.93
2023-02-25T07:06:50.212Z,2.97
2023-02-25T07:09:18.253Z,4.20
2023-02-25T07:11:46.380Z,4.70
2023-02-25T07:14:16.345Z,4.57
2023-02-25T07:16:45.816Z,4.10
2023-02-25T07:19:15.033Z,4.07
2023-02-25T07:21:43.216Z,5.07
2023-02-25T07:24:11.713Z,2.92
2023-02-25T07:26:40.367Z,6.32
2023-02-25T07:29:08.510Z,3.77
2023-02-25T07:31:36.806Z,4.32
2023-02-25T07:34:06.552Z,7.13
2023-02-25T07:36:37.526Z,4.95
2023-02-25T07:39:07.341Z,4.18
2023-02-25T07:41:36.088Z,4.55
2023-02-25T07:44:04.976Z,5.13
2023-02-25T07:46:33.281Z,4.65
2023-02-25T07:49:01.483Z,5.55
2023-02-25T07:51:31.103Z,2.88
2023-02-25T07:56:29.440Z,8.50
2023-02-25T07:58:57.659Z,5.05
2023-02-25T08:01:27.412Z,3.40
2023-02-25T08:03:57.323Z,6.40
2023-02-25T08:06:26.169Z,4.95
2023-02-25T08:08:56.129Z,7.07
2023-02-25T08:11:25.986Z,4.00
2023-02-25T08:13:54.388Z,3.15
2023-02-25T08:16:23.761Z,5.25
2023-02-25T08:18:53.011Z,2.65
2023-02-25T08:21:23.413Z,4.75
2023-02-25T08:23:52.985Z,2.95
2023-02-25T08:26:23.542Z,4.72
2023-02-25T08:28:52.369Z,3.72
2023-02-25T08:31:22.469Z,3.55
2023-02-25T08:33:52.868Z,4.47
2023-02-25T08:36:23.275Z,3.92
2023-02-25T08:38:52.662Z,3.50
2023-02-25T08:41:23.555Z,3.75
2023-02-25T08:43:54.475Z,3.50
2023-02-25T08:46:23.715Z,4.72
2023-02-25T08:48:53.341Z,2.80
2023-02-25T08:51:24.386Z,2.67
2023-02-25T08:53:52.707Z,5.30
2023-02-25T08:56:22.156Z,3.85
2023-02-25T08:58:50.242Z,2.20
2023-02-25T09:01:18.871Z,4.05
2023-02-25T09:03:52.219Z,3.47
2023-02-25T09:06:21.625Z,13.05
2023-02-25T09:08:49.859Z,3.92
2023-02-25T09:11:18.481Z,3.65
2023-02-25T09:13:47.965Z,2.43
2023-02-25T09:18:45.966Z,8.95
2023-02-25T09:21:15.312Z,6.77
2023-02-25T09:23:43.964Z,4.93
2023-02-25T09:26:12.531Z,5.50
2023-02-25T09:28:40.664Z,3.90
2023-02-25T09:31:10.250Z,4.78
2023-02-25T09:36:08.486Z,4.25
2023-02-25T09:38:36.829Z,4.97
2023-02-25T09:41:15.689Z,2.80
2023-02-25T09:43:44.230Z,4.28
2023-02-25T09:46:18.178Z,3.88
2023-02-25T09:48:54.935Z,4.15
2023-02-25T09:51:24.726Z,3.33
2023-02-25T09:53:56.834Z,4.15
2023-02-25T09:56:27.933Z,4.68
2023-02-25T09:58:58.809Z,4.18
2023-02-25T10:01:35.241Z,2.70
2023-02-25T10:04:10.504Z,3.70
2023-02-25T10:06:44.148Z,2.58
2023-02-25T10:09:22.538Z,4.55
2023-02-25T10:11:54.888Z,3.30
2023-02-25T10:14:42.236Z,2.30
2023-02-25T10:17:27.001Z,2.13
2023-02-25T10:20:32.074Z,4.63
2023-02-25T10:23:10.185Z,3.75
2023-02-25T10:25:43.678Z,2.25
2023-02-25T10:28:16.390Z,2.25
2023-02-25T10:30:51.468Z,1.50
2023-02-25T10:33:24.997Z,1.50
2023-02-25T10:35:57.493Z,4.97
2023-02-25T10:38:25.585Z,2.85
2023-02-25T10:40:56.172Z,3.70
2023-02-25T10:43:26.572Z,3.88
2023-02-25T10:46:02.412Z,3.92
2023-02-25T10:48:32.174Z,4.32
2023-02-25T10:51:09.794Z,3.13
2023-02-25T10:53:37.864Z,2.75
2023-02-25T10:56:06.721Z,5.93
2023-02-25T10:58:47.212Z,4.90
2023-02-25T11:01:17.980Z,3.67
2023-02-25T11:03:55.491Z,4.18
2023-02-25T11:06:26.812Z,3.15
2023-02-25T11:08:58.390Z,3.05
2023-02-25T11:11:31.069Z,2.88
2023-02-25T11:14:06.233Z,5.20
2023-02-25T11:16:36.421Z,3.65
2023-02-25T11:19:15.020Z,4.25
2023-02-25T11:21:43.699Z,6.83
2023-02-25T11:24:16.624Z,4.93
2023-02-25T11:26:46.560Z,2.63
2023-02-25T11:29:18.957Z,6.53
2023-02-25T11:31:52.090Z,4.47
2023-02-25T11:34:25.146Z,3.78
2023-02-25T11:36:53.834Z,3.33
2023-02-25T11:39:23.639Z,3.83
2023-02-25T11:41:53.780Z,3.75
2023-02-25T11:44:28.140Z,2.72
2023-02-25T11:47:08.320Z,3.20
2023-02-25T11:49:51.976Z,3.03
2023-02-25T11:52:26.453Z,2.47
2023-02-25T11:55:10.801Z,2.17
2023-02-25T11:57:50.775Z,3.45
2023-02-25T12:00:26.006Z,2.25
2023-02-25T12:03:11.492Z,2.97
2023-02-25T12:05:53.352Z,3.47
2023-02-25T12:08:36.084Z,2.60
2023-02-25T12:11:42.883Z,4.45
2023-02-25T12:14:50.894Z,4.03
2023-02-25T12:17:41.201Z,5.07
2023-02-25T12:20:30.391Z,3.47
2023-02-25T12:23:51.548Z,4.97
2023-02-25T12:26:33.442Z,3.78
2023-02-25T12:29:26.419Z,4.53
2023-02-25T12:32:30.354Z,3.08
2023-02-25T12:35:29.241Z,4.22
2023-02-25T12:38:33.872Z,2.30
2023-02-25T12:41:22.128Z,2.13
2023-02-25T12:43:54.113Z,3.80
2023-02-25T12:46:44.518Z,3.70
2023-02-25T12:49:35.409Z,2.20
2023-02-25T12:52:21.021Z,3.72
2023-02-25T12:55:15.386Z,3.70
2023-02-25T12:57:51.771Z,3.58
2023-02-25T13:00:58.486Z,4.82
2023-02-25T13:03:37.572Z,2.25
2023-02-25T13:06:23.084Z,5.90
2023-02-25T13:09:17.384Z,3.95
2023-02-25T13:12:15.182Z,3.53
2023-02-25T13:14:57.814Z,1.88
2023-02-25T13:17:43.196Z,6.43
2023-02-25T13:21:00.209Z,2.45
2023-02-25T13:23:45.088Z,1.30
2023-02-25T13:26:29.003Z,2.47
2023-02-25T13:29:28.112Z,2.55
2023-02-25T13:32:21.520Z,1.70
2023-02-25T13:35:02.323Z,1.83
2023-02-25T13:37:42.588Z,1.83
2023-02-25T13:40:27.047Z,2.00
2023-02-25T13:43:04.530Z,3.40
2023-02-25T13:45:50.365Z,1.42
2023-02-25T13:48:50.982Z,0.70
2023-02-25T13:51:37.464Z,2.50
2023-02-25T13:54:28.134Z,1.63
2023-02-25T13:57:05.342Z,2.00
2023-02-25T13:59:49.805Z,1.92
2023-02-25T14:02:51.197Z,3.35
2023-02-25T14:05:42.430Z,1.90
2023-02-25T14:08:45.537Z,0.98
2023-02-25T14:11:31.043Z,0.98
2023-02-25T14:14:21.448Z,0.75
2023-02-25T14:16:59.209Z,10.48
2023-02-25T14:19:38.248Z,5.38
2023-02-25T14:22:22.305Z,9.85
2023-02-25T14:24:59.652Z,6.50
2023-02-25T14:27:35.912Z,8.93
2023-02-25T14:30:22.676Z,10.75
2023-02-25T14:33:10.200Z,10.20
2023-02-25T14:36:00.866Z,9.93
2023-02-25T14:38:42.036Z,11.52
2023-02-25T14:41:24.691Z,6.50
2023-02-25T14:43:56.492Z,9.80
2023-02-25T14:46:32.685Z,9.50
2023-02-25T14:49:05.209Z,9.40
2023-02-25T14:51:52.543Z,8.43
2023-02-25T14:55:08.388Z,6.80
2023-02-25T14:58:12.152Z,7.40
2023-02-25T15:01:03.024Z,9.38
2023-02-25T15:04:00.863Z,5.15
2023-02-25T15:06:52.562Z,6.15
2023-02-25T15:09:48.066Z,3.33
2023-02-25T15:12:37.511Z,48.95
2023-02-25T15:18:24.293Z,30.30
2023-02-25T15:20:52.937Z,7.78
2023-02-25T15:23:22.046Z,7.43
2023-02-25T15:25:53.910Z,9.65
2023-02-25T15:28:38.934Z,5.68
2023-02-25T15:31:38.896Z,5.35
2023-02-25T15:34:39.580Z,1.83
2023-02-25T15:37:25.476Z,4.20
2023-02-25T15:39:56.431Z,1.23
2023-02-25T15:42:53.078Z,1.60
2023-02-25T15:45:41.116Z,1.83
2023-02-25T15:48:37.861Z,2.15
2023-02-25T15:51:11.500Z,1.60
2023-02-25T15:53:46.051Z,1.10
2023-02-25T15:56:46.655Z,2.63
2023-02-25T15:59:42.880Z,1.67
2023-02-25T16:02:34.650Z,1.60
2023-02-25T16:05:05.679Z,2.30
2023-02-25T16:07:37.244Z,1.67
2023-02-25T16:10:10.391Z,2.72
2023-02-25T16:12:43.054Z,1.52
2023-02-25T16:15:16.494Z,3.00
2023-02-25T16:17:46.371Z,3.05
2023-02-25T16:20:20.012Z,1.92
2023-02-25T16:22:50.093Z,2.20
2023-02-25T16:25:24.443Z,3.72
2023-02-25T16:27:59.023Z,2.30
2023-02-25T16:30:34.509Z,4.93
2023-02-25T16:33:12.030Z,4.20
2023-02-25T16:35:47.916Z,3.83
2023-02-25T16:38:23.685Z,5.00
2023-02-25T16:40:52.886Z,3.70
2023-02-25T16:43:26.029Z,3.53
2023-02-25T16:45:57.723Z,4.28
2023-02-25T16:48:31.988Z,4.10
2023-02-25T16:51:10.227Z,3.85
2023-02-25T16:53:44.349Z,2.65
2023-02-25T16:56:19.864Z,4.40
2023-02-25T16:59:01.125Z,10.63
2023-02-25T17:01:30.863Z,16.27
2023-02-25T17:04:14.932Z,9.43
2023-02-25T17:06:43.345Z,9.27
2023-02-25T17:09:24.331Z,10.07
2023-02-25T17:11:56.655Z,6.68
2023-02-25T17:14:26.023Z,6.15
2023-02-25T17:16:54.389Z,4.63
2023-02-25T17:19:24.802Z,5.57
2023-02-25T17:21:55.609Z,7.10
2023-02-25T17:24:27.597Z,6.68
2023-02-25T17:26:56.170Z,5.18
2023-02-25T17:29:34.775Z,5.07
2023-02-25T17:32:14.633Z,10.05
2023-02-25T17:34:45.106Z,7.65
2023-02-25T17:37:14.185Z,9.40
2023-02-25T17:39:44.243Z,13.20
2023-02-25T17:42:30.120Z,12.57
2023-02-25T17:44:58.705Z,10.15
2023-02-25T17:47:28.435Z,5.07
2023-02-25T17:49:59.938Z,6.35
2023-02-25T17:52:33.108Z,5.75
2023-02-25T17:55:03.813Z,5.97
2023-02-25T17:57:33.834Z,5.70
2023-02-25T18:00:14.221Z,5.07
2023-02-25T18:02:44.091Z,6.68
2023-02-25T18:05:27.179Z,5.78
2023-02-25T18:08:09.241Z,5.78
2023-02-25T18:10:49.539Z,6.40
2023-02-25T18:13:31.056Z,7.30
2023-02-25T18:16:39.786Z,8.70
2023-02-25T18:19:25.097Z,7.78
2023-02-25T18:21:55.118Z,11.55
2023-02-25T18:24:25.763Z,7.22
2023-02-25T18:27:22.180Z,6.47
2023-02-25T18:29:50.235Z,6.30
2023-02-25T18:32:18.489Z,8.65
2023-02-25T18:34:46.600Z,6.18
2023-02-25T18:37:19.214Z,7.47
2023-02-25T18:39:49.811Z,7.88
2023-02-25T18:42:19.330Z,5.80
2023-02-25T18:47:16.745Z,7.85
2023-02-25T18:49:45.839Z,8.07
2023-02-25T18:52:22.461Z,7.05
2023-02-25T18:54:50.902Z,5.07
2023-02-25T18:57:23.493Z,4.25
2023-02-25T18:59:52.260Z,8.10
2023-02-25T19:02:32.310Z,6.65
2023-02-25T19:05:01.685Z,4.93
2023-02-25T19:07:33.307Z,7.25
2023-02-25T19:10:01.794Z,7.03
2023-02-25T19:12:32.847Z,8.18
2023-02-25T19:15:03.424Z,8.00
2023-02-25T19:17:31.650Z,8.65
2023-02-25T19:20:00.475Z,7.38
2023-02-25T19:22:29.905Z,7.00
2023-02-25T19:27:27.731Z,9.18
2023-02-25T19:29:57.975Z,7.97
2023-02-25T19:32:26.873Z,8.30
2023-02-25T19:34:55.090Z,6.78
2023-02-25T19:37:23.276Z,7.47
2023-02-25T19:39:52.740Z,8.55
2023-02-25T19:44:49.077Z,6.85
2023-02-25T19:47:17.183Z,7.32
2023-02-25T19:49:45.351Z,19.13
2023-02-25T19:52:13.612Z,8.85
2023-02-25T19:54:41.803Z,9.43
2023-02-25T19:57:11.589Z,8.20
2023-02-25T19:59:39.656Z,9.05
2023-02-25T20:02:08.076Z,7.05
2023-02-25T20:04:36.775Z,6.72
2023-02-25T20:07:04.918Z,7.60
2023-02-25T20:09:33.327Z,10.20
2023-02-25T20:12:02.458Z,8.82
2023-02-25T20:14:33.080Z,8.07
2023-02-25T20:17:01.856Z,9.57
2023-02-25T20:19:32.787Z,4.15
2023-02-25T20:22:02.058Z,11.90
2023-02-25T20:24:30.507Z,7.43
2023-02-25T20:26:58.656Z,7.37
2023-02-25T20:29:27.302Z,10.10
2023-02-25T20:31:57.138Z,7.57
2023-02-25T20:34:27.509Z,9.77
2023-02-25T20:36:58.054Z,10.48
2023-02-25T20:39:59.861Z,10.80
2023-02-25T20:42:31.044Z,13.63
2023-02-25T20:45:01.799Z,14.02
2023-02-25T20:47:34.878Z,9.65
2023-02-25T20:50:03.980Z,11.07
2023-02-25T20:52:32.415Z,12.60
2023-02-25T20:55:00.648Z,11.88
2023-02-25T20:57:29.088Z,10.18
2023-02-25T20:59:57.222Z,13.27
2023-02-25T21:02:25.540Z,12.50
2023-02-25T21:04:54.977Z,11.85
2023-02-25T21:09:50.990Z,11.27
2023-02-25T21:12:19.115Z,8.07
2023-02-25T21:14:47.115Z,9.13
2023-02-25T21:17:15.195Z,16.83
2023-02-25T21:19:43.599Z,9.43
2023-02-25T21:22:13.005Z,10.73
2023-02-25T21:24:41.112Z,10.02
2023-02-25T21:27:09.173Z,9.65
2023-02-25T21:29:37.235Z,12.52
2023-02-25T21:32:05.431Z,13.18
2023-02-25T21:34:33.545Z,10.20
2023-02-25T21:37:01.660Z,12.07
2023-02-25T21:39:31.153Z,11.82
2023-02-25T21:44:27.488Z,7.97
2023-02-25T21:46:55.591Z,12.10
2023-02-25T21:49:23.775Z,8.23
2023-02-25T21:51:51.830Z,7.20
2023-02-25T21:54:19.879Z,8.90
2023-02-25T21:56:49.261Z,8.30
2023-02-25T21:59:17.826Z,6.63
2023-02-25T22:01:46.096Z,5.97
2023-02-25T22:04:14.304Z,7.45
2023-02-25T22:06:43.656Z,7.53
2023-02-25T22:09:12.593Z,7.20
2023-02-25T22:11:40.679Z,5.05
2023-02-25T22:14:10.562Z,8.00
2023-02-25T22:16:40.079Z,7.00
2023-02-25T22:21:38.163Z,6.95
2023-02-25T22:24:06.871Z,6.60
2023-02-25T22:26:36.995Z,5.50
2023-02-25T22:29:08.302Z,5.13
2023-02-25T22:31:38.452Z,6.57
2023-02-25T22:34:08.128Z,6.75
2023-02-25T22:36:36.297Z,5.43
2023-02-25T22:39:06.235Z,6.55
2023-02-25T22:41:34.401Z,8.60
2023-02-25T22:44:02.632Z,8.10
2023-02-25T22:46:32.402Z,11.45
2023-02-25T22:49:01.816Z,8.25
2023-02-25T22:51:31.551Z,7.95
2023-02-25T22:54:00.393Z,7.45
2023-02-25T22:56:29.223Z,7.45
2023-02-25T22:58:57.713Z,9.65
2023-02-25T23:01:27.035Z,8.40
2023-02-25T23:03:56.509Z,7.82
2023-02-25T23:09:11.819Z,7.57
2023-02-25T23:11:42.130Z,9.63
2023-02-25T23:14:10.624Z,6.60
2023-02-25T23:16:40.697Z,6.53
2023-02-25T23:19:10.779Z,4.95
2023-02-25T23:21:40.230Z,5.90
2023-02-25T23:24:09.643Z,4.53
2023-02-25T23:29:10.212Z,4.45
2023-02-25T23:31:42.836Z,5.40
2023-02-25T23:34:13.105Z,5.55
2023-02-25T23:36:44.142Z,3.88
2023-02-25T23:39:13.645Z,4.45
2023-02-25T23:44:09.943Z,4.70
2023-02-25T23:46:38.641Z,4.18
2023-02-25T23:49:07.918Z,3.20
2023-02-25T23:51:36.524Z,3.78
2023-02-25T23:54:07.181Z,4.30
2023-02-25T23:56:36.203Z,5.43
2023-02-25T23:59:04.598Z,4.45
